Time;durP1;ratioP1;P1;durP2;ratioP2;P2;SDS_P1;SDS_P2;PMS_P1;PMS_P2;Temp;Humidity;BMP_temperature;BMP_pressure;BME280_temperature;BME280_humidity;BME280_pressure;Samples;Min_cycle;Max_cycle;Signal;HPM_P1;HPM_P2
2022/02/21 00:01:06;;;;;;;0.30;0.30;;;10.80;99.90;;;;;;5095160;28;20229;-66
2022/02/21 00:03:32;;;;;;;0.60;0.60;;;10.90;99.90;;;;;;5094808;28;20234;-68
2022/02/21 00:05:58;;;;;;;0.30;0.30;;;10.90;99.90;;;;;;5095060;28;20219;-68
2022/02/21 00:08:24;;;;;;;1.70;0.70;;;10.90;99.90;;;;;;5095022;28;20168;-67
2022/02/21 00:10:50;;;;;;;0.70;0.60;;;10.90;99.90;;;;;;5095058;28;20176;-68
2022/02/21 00:13:16;;;;;;;0.40;0.40;;;11.00;99.90;;;;;;5094603;28;20409;-67
2022/02/21 00:15:41;;;;;;;1.00;0.43;;;10.90;99.90;;;;;;5094864;28;20606;-68
2022/02/21 00:18:07;;;;;;;0.87;0.70;;;10.90;99.90;;;;;;5094896;28;20172;-68
2022/02/21 00:20:33;;;;;;;0.40;0.40;;;10.90;99.90;;;;;;5095199;28;20251;-67
2022/02/21 00:22:59;;;;;;;1.40;0.90;;;11.00;99.90;;;;;;5094783;28;20215;-67
2022/02/21 00:25:25;;;;;;;0.40;0.37;;;11.00;99.90;;;;;;5094924;28;20607;-67
2022/02/21 00:27:50;;;;;;;0.60;0.60;;;11.10;99.90;;;;;;5094808;28;20542;-67
2022/02/21 00:30:16;;;;;;;0.40;0.40;;;11.10;99.90;;;;;;5094831;28;20164;-66
2022/02/21 00:32:42;;;;;;;3.23;0.70;;;11.10;99.90;;;;;;5094401;28;20534;-67
2022/02/21 00:35:08;;;;;;;2.00;0.70;;;11.10;99.90;;;;;;5094508;28;20203;-68
2022/02/21 00:37:34;;;;;;;0.50;0.50;;;11.10;99.90;;;;;;5094558;28;20164;-67
2022/02/21 00:39:59;;;;;;;1.13;0.63;;;11.10;99.90;;;;;;5094385;28;20221;-67
2022/02/21 00:42:25;;;;;;;0.80;0.80;;;11.10;99.90;;;;;;5094726;28;20754;-67
2022/02/21 00:44:56;;;;;;;0.87;0.50;;;11.00;99.90;;;;;;5093919;28;20191;-67
2022/02/21 00:47:28;;;;;;;0.95;0.60;;;11.10;99.90;;;;;;5094175;28;20171;-66
2022/02/21 00:49:55;;;;;;;0.50;0.50;;;11.10;99.90;;;;;;5094215;28;20255;-66
2022/02/21 00:52:22;;;;;;;3.33;0.85;;;11.10;99.90;;;;;;5094196;28;20503;-68
2022/02/21 00:54:48;;;;;;;1.38;0.50;;;11.10;99.90;;;;;;5093742;28;20712;-68
2022/02/21 00:57:14;;;;;;;1.00;0.65;;;11.10;99.90;;;;;;5094165;28;20491;-65
2022/02/21 00:59:39;;;;;;;1.33;0.87;;;11.10;99.90;;;;;;5094238;28;20164;-68
2022/02/21 01:02:05;;;;;;;1.47;0.97;;;11.10;99.90;;;;;;5094093;28;20642;-65
2022/02/21 01:04:31;;;;;;;3.00;0.60;;;11.10;99.90;;;;;;5093459;28;20203;-66
2022/02/21 01:06:57;;;;;;;0.70;0.40;;;11.00;99.90;;;;;;5094017;28;20246;-68
2022/02/21 01:09:23;;;;;;;0.80;0.50;;;11.00;99.90;;;;;;5093977;28;20175;-67
2022/02/21 01:11:48;;;;;;;4.23;0.80;;;11.00;99.90;;;;;;5093811;28;20188;-68
2022/02/21 01:14:14;;;;;;;0.83;0.83;;;11.00;99.90;;;;;;5093356;28;20509;-66
2022/02/21 01:16:40;;;;;;;4.43;0.87;;;10.90;99.90;;;;;;5093668;28;20171;-66
2022/02/21 01:19:05;;;;;;;0.50;0.50;;;10.90;99.90;;;;;;5075731;28;20179;-66
2022/02/21 01:21:32;;;;;;;0.70;0.70;;;10.90;99.90;;;;;;5093751;28;20222;-67
2022/02/21 01:23:59;;;;;;;2.58;0.77;;;10.90;99.90;;;;;;5093224;28;20730;-65
2022/02/21 01:26:25;;;;;;;1.27;0.40;;;10.90;99.90;;;;;;5093658;28;20196;-66
2022/02/21 01:28:51;;;;;;;0.50;0.43;;;10.90;99.90;;;;;;5093796;28;20168;-69
2022/02/21 01:31:17;;;;;;;1.85;0.60;;;10.90;99.90;;;;;;5093504;28;20445;-65
2022/02/21 01:33:43;;;;;;;0.67;0.67;;;10.90;99.90;;;;;;5093051;28;20209;-67
2022/02/21 01:36:09;;;;;;;3.83;0.57;;;10.80;99.90;;;;;;5093483;28;20493;-67
2022/02/21 01:38:34;;;;;;;0.70;0.50;;;10.80;99.90;;;;;;5093620;28;20247;-68
2022/02/21 01:41:00;;;;;;;0.60;0.60;;;10.80;99.90;;;;;;5093798;28;20836;-67
2022/02/21 01:43:26;;;;;;;0.50;0.50;;;10.80;99.90;;;;;;5093068;28;20168;-65
2022/02/21 01:45:51;;;;;;;0.67;0.40;;;10.80;99.90;;;;;;5093770;28;20760;-65
2022/02/21 01:48:17;;;;;;;1.23;0.60;;;10.80;99.90;;;;;;5094252;28;20213;-67
2022/02/21 01:50:43;;;;;;;1.70;0.90;;;10.70;99.90;;;;;;5093525;28;20703;-64
2022/02/21 01:53:10;;;;;;;1.05;0.95;;;10.70;99.90;;;;;;5093076;28;20199;-67
2022/02/21 01:55:37;;;;;;;0.75;0.75;;;10.70;99.90;;;;;;5093439;28;20192;-68
2022/02/21 01:58:05;;;;;;;0.60;0.60;;;10.70;99.90;;;;;;5093476;28;20198;-67
2022/02/21 02:00:30;;;;;;;0.45;0.45;;;10.70;99.90;;;;;;5093635;28;20199;-68
2022/02/21 02:02:56;;;;;;;0.70;0.50;;;10.70;99.90;;;;;;5092984;28;20203;-66
2022/02/21 02:05:25;;;;;;;0.90;0.50;;;10.60;99.90;;;;;;5093074;28;20257;-65
2022/02/21 02:07:52;;;;;;;0.60;0.60;;;10.70;99.90;;;;;;5093394;28;20534;-65
2022/02/21 02:10:18;;;;;;;0.65;0.65;;;10.70;99.90;;;;;;5093221;28;20564;-68
2022/02/21 02:12:44;;;;;;;1.15;0.63;;;10.70;99.90;;;;;;5092950;28;20196;-66
2022/02/21 02:15:18;;;;;;;0.60;0.40;;;10.70;99.90;;;;;;5093195;28;20216;-67
2022/02/21 02:17:44;;;;;;;0.55;0.52;;;10.70;99.90;;;;;;5092939;28;20194;-66
2022/02/21 02:20:12;;;;;;;0.50;0.50;;;10.70;99.90;;;;;;5097160;28;20168;-66
2022/02/21 02:22:38;;;;;;;1.30;1.10;;;10.70;99.90;;;;;;5097214;28;20214;-67
2022/02/21 02:25:04;;;;;;;0.40;0.40;;;10.70;99.90;;;;;;5096799;28;20188;-66
2022/02/21 02:27:30;;;;;;;0.50;0.50;;;10.60;99.90;;;;;;5096829;28;20209;-68
2022/02/21 02:30:02;;;;;;;0.40;0.40;;;10.60;99.90;;;;;;5097080;28;20203;-68
2022/02/21 02:32:27;;;;;;;0.45;0.43;;;10.50;99.90;;;;;;5097019;28;20742;-67
2022/02/21 02:34:53;;;;;;;0.60;0.60;;;10.50;99.90;;;;;;5096423;28;20274;-65
2022/02/21 02:37:21;;;;;;;0.53;0.50;;;10.60;99.90;;;;;;5096739;28;20402;-68
2022/02/21 02:39:47;;;;;;;1.45;0.47;;;10.60;99.90;;;;;;5096846;28;20168;-68
2022/02/21 02:42:13;;;;;;;0.90;0.67;;;10.60;99.90;;;;;;5096725;28;20183;-65
2022/02/21 02:44:41;;;;;;;1.10;0.60;;;10.50;99.90;;;;;;5096286;28;20192;-68
2022/02/21 02:47:08;;;;;;;0.63;0.63;;;10.50;99.90;;;;;;5096555;28;20206;-68
2022/02/21 02:49:34;;;;;;;0.65;0.65;;;10.50;99.90;;;;;;5096747;28;20529;-68
2022/02/21 02:52:00;;;;;;;2.15;0.60;;;10.40;99.90;;;;;;5096453;28;20285;-67
2022/02/21 02:54:25;;;;;;;1.10;0.50;;;10.40;99.90;;;;;;5096061;28;20593;-65
2022/02/21 02:56:51;;;;;;;0.50;0.50;;;10.30;99.90;;;;;;5096367;28;20196;-66
2022/02/21 02:59:17;;;;;;;2.00;0.50;;;10.20;99.90;;;;;;5096429;28;20243;-68
2022/02/21 03:01:43;;;;;;;0.75;0.50;;;10.20;99.90;;;;;;5096400;28;20172;-66
2022/02/21 03:04:09;;;;;;;0.63;0.47;;;10.10;99.90;;;;;;5095804;28;20203;-68
2022/02/21 03:06:36;;;;;;;0.40;0.40;;;10.10;99.90;;;;;;5096451;28;20256;-67
2022/02/21 03:09:02;;;;;;;0.50;0.40;;;10.10;99.90;;;;;;5096011;28;20209;-68
2022/02/21 03:11:28;;;;;;;1.90;0.52;;;10.10;99.90;;;;;;5096074;28;20290;-67
2022/02/21 03:13:55;;;;;;;1.23;0.50;;;10.10;99.90;;;;;;5095733;28;20248;-68
2022/02/21 03:16:20;;;;;;;0.63;0.63;;;10.10;99.90;;;;;;5095979;28;20174;-68
2022/02/21 03:18:47;;;;;;;0.90;0.57;;;10.20;99.90;;;;;;5096080;28;20239;-66
2022/02/21 03:21:12;;;;;;;0.40;0.40;;;10.20;99.90;;;;;;5096139;28;20506;-67
2022/02/21 03:23:38;;;;;;;0.30;0.30;;;10.30;99.90;;;;;;5095868;28;20674;-67
2022/02/21 03:26:03;;;;;;;3.83;0.80;;;10.30;99.90;;;;;;5095748;28;20188;-67
2022/02/21 03:28:29;;;;;;;0.50;0.43;;;10.30;99.90;;;;;;5096074;28;20161;-69
2022/02/21 03:30:55;;;;;;;1.63;0.50;;;10.30;99.90;;;;;;5094549;28;20572;-67
2022/02/21 03:33:21;;;;;;;0.30;0.27;;;10.30;99.90;;;;;;5095579;28;20164;-68
2022/02/21 03:35:47;;;;;;;0.60;0.40;;;10.40;99.90;;;;;;5095908;28;20279;-67
2022/02/21 03:38:13;;;;;;;0.60;0.60;;;10.40;99.90;;;;;;5095754;28;20276;-67
2022/02/21 03:40:38;;;;;;;0.40;0.40;;;10.40;99.90;;;;;;5095743;28;20631;-68
2022/02/21 03:43:04;;;;;;;0.93;0.40;;;10.40;99.90;;;;;;5095250;28;20202;-70
2022/02/21 03:45:30;;;;;;;1.03;0.67;;;9.60;99.90;;;;;;5095561;28;20191;-68
2022/02/21 03:47:56;;;;;;;0.67;0.67;;;8.30;99.90;;;;;;5095533;28;20412;-67
2022/02/21 03:50:22;;;;;;;0.40;0.30;;;7.10;99.90;;;;;;5095396;28;20275;-67
2022/02/21 03:52:48;;;;;;;1.50;1.00;;;6.20;99.90;;;;;;5094923;28;20271;-67
2022/02/21 03:55:14;;;;;;;0.70;0.50;;;5.60;99.90;;;;;;5095193;28;20268;-67
2022/02/21 03:57:39;;;;;;;1.13;0.50;;;5.30;99.90;;;;;;5095650;28;20403;-65
2022/02/21 04:00:08;;;;;;;1.53;0.40;;;5.10;99.90;;;;;;5094042;28;20179;-66
2022/02/21 04:02:33;;;;;;;0.30;0.30;;;4.90;99.90;;;;;;5095199;28;20652;-66
2022/02/21 04:05:01;;;;;;;1.90;0.53;;;4.80;99.90;;;;;;5094507;28;20208;-67
2022/02/21 04:07:28;;;;;;;0.63;0.57;;;4.80;99.90;;;;;;5095387;28;20172;-66
2022/02/21 04:09:53;;;;;;;0.50;0.40;;;4.70;99.90;;;;;;5093716;28;20199;-66
2022/02/21 04:12:19;;;;;;;0.30;0.30;;;4.70;99.90;;;;;;5094814;28;20693;-66
2022/02/21 04:14:45;;;;;;;0.50;0.47;;;4.60;99.90;;;;;;5094474;28;20215;-67
2022/02/21 04:17:11;;;;;;;0.70;0.70;;;4.60;99.90;;;;;;5094998;28;20198;-67
2022/02/21 04:19:36;;;;;;;0.43;0.43;;;4.60;99.90;;;;;;5095046;28;20235;-66
2022/02/21 04:22:02;;;;;;;0.40;0.37;;;4.60;99.90;;;;;;5094709;28;20638;-67
2022/02/21 04:24:28;;;;;;;0.60;0.50;;;4.60;99.90;;;;;;5094299;28;20604;-65
2022/02/21 04:26:54;;;;;;;0.70;0.70;;;4.60;99.90;;;;;;5093446;28;20172;-66
2022/02/21 04:29:19;;;;;;;1.10;0.77;;;4.50;99.90;;;;;;5094839;28;20642;-64
2022/02/21 04:31:45;;;;;;;1.60;1.50;;;4.50;99.90;;;;;;5094686;28;20195;-67
2022/02/21 04:34:10;;;;;;;0.60;0.60;;;4.50;99.90;;;;;;5092765;28;20203;-66
2022/02/21 04:36:38;;;;;;;0.70;0.70;;;4.50;99.90;;;;;;5094491;28;20179;-67
2022/02/21 04:39:04;;;;;;;1.05;0.82;;;4.50;99.90;;;;;;5093147;28;20534;-64
2022/02/21 04:41:30;;;;;;;1.95;0.88;;;4.50;99.90;;;;;;5092711;28;20263;-66
2022/02/21 04:43:56;;;;;;;0.30;0.30;;;4.50;99.90;;;;;;5093918;28;20665;-69
2022/02/21 04:46:22;;;;;;;0.40;0.40;;;4.60;99.90;;;;;;5094325;28;20251;-67
2022/02/21 04:48:47;;;;;;;2.30;0.57;;;4.60;99.90;;;;;;5094185;28;20172;-68
2022/02/21 04:51:13;;;;;;;2.27;0.40;;;4.70;99.90;;;;;;5094072;28;20179;-67
2022/02/21 04:53:39;;;;;;;2.67;0.90;;;4.70;99.90;;;;;;5093847;28;20298;-67
2022/02/21 04:56:05;;;;;;;1.10;0.70;;;4.70;99.90;;;;;;5093981;28;20935;-65
2022/02/21 04:58:30;;;;;;;0.83;0.83;;;4.70;99.90;;;;;;5094197;28;20496;-66
2022/02/21 05:00:56;;;;;;;1.07;0.60;;;4.80;99.90;;;;;;5094110;28;20175;-67
2022/02/21 05:03:22;;;;;;;0.80;0.70;;;4.80;99.90;;;;;;5093465;28;20188;-68
2022/02/21 05:05:47;;;;;;;2.00;1.33;;;4.80;99.90;;;;;;5094026;28;20546;-68
2022/02/21 05:08:13;;;;;;;4.23;0.73;;;4.80;99.90;;;;;;5093972;28;20172;-67
2022/02/21 05:10:39;;;;;;;0.60;0.60;;;4.90;99.90;;;;;;5093940;28;20179;-66
2022/02/21 05:13:04;;;;;;;0.63;0.47;;;4.80;99.90;;;;;;5093430;28;20206;-66
2022/02/21 05:15:30;;;;;;;2.10;1.17;;;4.90;99.90;;;;;;5093565;28;20192;-66
2022/02/21 05:17:55;;;;;;;0.60;0.60;;;4.90;99.90;;;;;;5093978;28;20168;-65
2022/02/21 05:20:21;;;;;;;1.43;0.80;;;4.90;99.90;;;;;;5093705;28;20177;-67
2022/02/21 05:22:47;;;;;;;0.43;0.40;;;5.00;99.90;;;;;;5094014;28;20637;-66
2022/02/21 05:25:13;;;;;;;0.40;0.40;;;5.10;99.90;;;;;;5093790;28;20279;-67
2022/02/21 05:27:40;;;;;;;2.43;1.57;;;5.10;99.90;;;;;;5093772;28;20418;-65
2022/02/21 05:30:08;;;;;;;2.40;0.75;;;5.20;99.90;;;;;;5093636;28;20183;-68
2022/02/21 05:32:33;;;;;;;0.68;0.47;;;5.20;99.90;;;;;;5093652;28;20192;-66
2022/02/21 05:35:00;;;;;;;0.73;0.73;;;5.20;99.90;;;;;;5093137;28;20198;-66
2022/02/21 05:37:25;;;;;;;0.57;0.57;;;5.30;99.90;;;;;;5093572;28;20635;-66
2022/02/21 05:39:51;;;;;;;2.67;1.10;;;5.30;99.90;;;;;;5093323;28;20252;-66
2022/02/21 05:42:17;;;;;;;0.80;0.80;;;5.30;99.90;;;;;;5093312;28;20179;-66
2022/02/21 05:44:43;;;;;;;0.90;0.90;;;5.30;99.90;;;;;;5093026;28;20434;-67
2022/02/21 05:47:08;;;;;;;0.67;0.67;;;5.40;99.90;;;;;;5093405;28;20262;-67
2022/02/21 05:49:34;;;;;;;1.07;1.00;;;5.40;99.90;;;;;;5093341;28;20220;-66
2022/02/21 05:52:00;;;;;;;0.50;0.50;;;5.50;99.90;;;;;;5093951;28;20255;-70
2022/02/21 05:54:26;;;;;;;3.22;0.95;;;5.50;99.90;;;;;;5096012;28;20192;-65
2022/02/21 05:56:52;;;;;;;3.17;0.63;;;5.40;99.90;;;;;;5097357;28;20246;-66
2022/02/21 05:59:18;;;;;;;1.00;0.80;;;5.50;99.90;;;;;;5095759;28;20247;-66
2022/02/21 06:01:44;;;;;;;1.75;0.60;;;5.50;99.90;;;;;;5097657;28;20176;-66
2022/02/21 06:04:10;;;;;;;0.63;0.63;;;5.60;99.90;;;;;;5097021;28;20200;-65
2022/02/21 06:06:36;;;;;;;0.63;0.63;;;5.60;99.90;;;;;;5097344;28;20183;-67
2022/02/21 06:09:04;;;;;;;1.07;0.70;;;5.60;99.90;;;;;;5097376;28;20760;-68
2022/02/21 06:11:30;;;;;;;0.73;0.73;;;5.70;99.90;;;;;;5097242;28;20230;-67
2022/02/21 06:13:56;;;;;;;0.40;0.40;;;5.70;99.90;;;;;;5096696;28;20160;-66
2022/02/21 06:16:22;;;;;;;1.03;1.00;;;5.60;99.90;;;;;;5095799;28;20583;-67
2022/02/21 06:18:48;;;;;;;1.55;0.70;;;5.70;99.90;;;;;;5097608;28;20289;-66
2022/02/21 06:21:14;;;;;;;5.37;2.90;;;5.70;99.90;;;;;;5103520;28;20188;-66
2022/02/21 06:23:39;;;;;;;0.90;0.90;;;5.70;99.90;;;;;;5104467;28;20212;-68
2022/02/21 06:26:05;;;;;;;1.70;0.93;;;5.70;99.90;;;;;;5101503;28;20212;-66
2022/02/21 06:28:32;;;;;;;3.10;1.33;;;5.70;99.90;;;;;;5101454;28;20169;-67
2022/02/21 06:30:58;;;;;;;1.50;0.93;;;5.80;99.90;;;;;;5110246;28;20763;-67
2022/02/21 06:33:23;;;;;;;2.15;0.80;;;5.80;99.90;;;;;;5110320;28;20197;-67
2022/02/21 06:35:49;;;;;;;0.60;0.60;;;5.80;99.90;;;;;;5102762;28;20199;-68
2022/02/21 06:38:15;;;;;;;2.80;0.97;;;5.80;99.90;;;;;;5099172;28;20178;-65
2022/02/21 06:40:40;;;;;;;2.63;1.60;;;5.80;99.90;;;;;;5097215;28;20176;-66
2022/02/21 06:43:06;;;;;;;1.53;1.10;;;5.80;99.90;;;;;;5096613;28;20597;-66
2022/02/21 06:45:32;;;;;;;10.17;1.67;;;5.80;99.90;;;;;;5096660;28;20590;-66
2022/02/21 06:47:58;;;;;;;1.23;1.13;;;5.80;99.90;;;;;;5098007;28;20202;-64
2022/02/21 06:50:24;;;;;;;4.67;1.00;;;5.80;99.90;;;;;;5098229;28;20263;-66
2022/02/21 06:52:50;;;;;;;0.85;0.85;;;5.90;99.90;;;;;;5095963;28;20531;-65
2022/02/21 06:55:17;;;;;;;1.45;1.35;;;5.90;99.90;;;;;;5096352;28;20188;-66
2022/02/21 06:57:46;;;;;;;0.70;0.60;;;5.90;99.90;;;;;;5095737;28;20168;-64
2022/02/21 07:00:13;;;;;;;2.17;0.90;;;5.90;99.90;;;;;;5096174;28;20203;-66
2022/02/21 07:02:39;;;;;;;10.50;1.50;;;5.90;99.90;;;;;;5095458;28;20233;-66
2022/02/21 07:05:05;;;;;;;1.00;0.87;;;6.00;99.90;;;;;;5095675;28;20208;-65
2022/02/21 07:07:32;;;;;;;0.93;0.60;;;6.00;99.90;;;;;;5096043;28;20213;-63
2022/02/21 07:09:58;;;;;;;1.95;0.73;;;6.00;99.90;;;;;;5095717;28;20770;-66
2022/02/21 07:12:24;;;;;;;3.13;0.57;;;6.00;99.90;;;;;;5095864;28;20310;-64
2022/02/21 07:14:49;;;;;;;0.70;0.70;;;6.00;99.90;;;;;;5094544;28;20348;-66
2022/02/21 07:17:15;;;;;;;1.50;1.40;;;6.00;99.90;;;;;;5095731;28;20627;-65
2022/02/21 07:19:41;;;;;;;1.73;1.63;;;6.00;99.90;;;;;;5095706;28;20195;-64
2022/02/21 07:22:06;;;;;;;1.17;1.07;;;6.00;99.90;;;;;;5094530;28;20180;-66
2022/02/21 07:24:32;;;;;;;3.03;0.80;;;5.90;99.90;;;;;;5094776;28;20200;-63
2022/02/21 07:27:00;;;;;;;2.43;1.60;;;5.90;99.90;;;;;;5096149;28;20169;-64
2022/02/21 07:29:26;;;;;;;3.65;0.90;;;5.90;99.90;;;;;;5095724;28;20196;-65
2022/02/21 07:31:53;;;;;;;0.50;0.50;;;6.00;99.90;;;;;;5095627;28;20557;-67
2022/02/21 07:34:19;;;;;;;1.10;0.80;;;6.30;99.90;;;;;;5100118;28;20190;-64
2022/02/21 07:36:44;;;;;;;2.63;1.15;;;6.70;99.90;;;;;;5097721;28;20716;-67
2022/02/21 07:39:12;;;;;;;8.47;1.10;;;7.20;99.90;;;;;;5095618;28;20200;-70
2022/02/21 07:41:41;;;;;;;1.50;1.13;;;7.70;99.90;;;;;;5095406;28;20425;-68
2022/02/21 07:44:07;;;;;;;1.30;0.68;;;8.10;99.70;;;;;;5095109;28;20749;-68
2022/02/21 07:46:32;;;;;;;0.93;0.77;;;8.40;98.60;;;;;;5083169;28;20264;-65
2022/02/21 07:48:58;;;;;;;1.10;1.00;;;8.50;97.90;;;;;;5075225;28;20631;-64
2022/02/21 07:51:24;;;;;;;2.00;1.33;;;8.60;98.00;;;;;;5074996;28;20242;-68
2022/02/21 07:53:49;;;;;;;1.70;1.23;;;8.80;97.90;;;;;;5087023;28;20180;-67
2022/02/21 07:56:15;;;;;;;7.73;1.00;;;9.00;97.60;;;;;;5095391;28;20164;-67
2022/02/21 07:58:41;;;;;;;1.07;0.70;;;9.20;97.00;;;;;;5094782;28;20452;-70
2022/02/21 08:01:06;;;;;;;1.70;0.93;;;9.50;96.80;;;;;;5094832;28;20187;-68
2022/02/21 08:03:36;;;;;;;3.83;2.03;;;9.80;96.00;;;;;;5093657;28;20539;-69
2022/02/21 08:06:06;;;;;;;2.57;1.73;;;10.00;94.80;;;;;;5093952;28;20187;-68
2022/02/21 08:08:31;;;;;;;1.07;0.90;;;10.20;94.60;;;;;;5094089;28;20427;-69
2022/02/21 08:10:57;;;;;;;1.60;0.97;;;10.80;94.20;;;;;;5094659;28;20413;-68
2022/02/21 08:13:22;;;;;;;0.50;0.50;;;11.30;93.10;;;;;;5094142;28;20237;-70
2022/02/21 08:15:48;;;;;;;0.90;0.90;;;11.70;92.20;;;;;;5093828;28;20241;-70
2022/02/21 08:18:14;;;;;;;2.57;0.53;;;12.20;91.60;;;;;;5094551;28;20180;-70
2022/02/21 08:20:39;;;;;;;2.20;0.60;;;12.40;91.00;;;;;;5094685;28;20176;-68
2022/02/21 08:23:05;;;;;;;2.47;1.27;;;12.40;91.00;;;;;;5094238;28;20173;-70
2022/02/21 08:25:31;;;;;;;2.60;0.80;;;12.40;91.20;;;;;;5094449;28;20196;-70
2022/02/21 08:27:56;;;;;;;4.57;1.67;;;12.40;90.90;;;;;;5094468;28;20168;-70
2022/02/21 08:30:24;;;;;;;0.97;0.77;;;12.10;90.60;;;;;;5094635;28;20305;-69
2022/02/21 08:32:50;;;;;;;2.03;0.90;;;11.90;91.30;;;;;;5094137;28;20199;-69
2022/02/21 08:35:16;;;;;;;3.33;1.47;;;12.00;91.00;;;;;;5094535;28;20784;-70
2022/02/21 08:37:43;;;;;;;2.80;0.93;;;11.70;90.80;;;;;;5094758;28;20764;-70
2022/02/21 08:40:12;;;;;;;1.83;1.53;;;11.40;91.40;;;;;;5094456;28;20398;-70
2022/02/21 08:42:38;;;;;;;1.57;1.13;;;11.60;91.40;;;;;;5094398;28;20414;-69
2022/02/21 08:45:08;;;;;;;2.20;1.57;;;12.30;91.00;;;;;;5092711;28;20517;-69
2022/02/21 08:47:34;;;;;;;2.97;1.07;;;12.90;90.30;;;;;;5094261;28;20422;-68
2022/02/21 08:50:00;;;;;;;1.93;0.63;;;13.60;88.40;;;;;;5094475;28;20416;-70
2022/02/21 08:52:25;;;;;;;1.77;0.70;;;14.20;87.50;;;;;;5094099;28;20785;-70
2022/02/21 08:54:51;;;;;;;1.50;1.13;;;14.80;86.70;;;;;;5093718;28;20223;-68
2022/02/21 08:57:17;;;;;;;1.27;1.27;;;15.40;82.60;;;;;;5094091;28;20179;-70
2022/02/21 08:59:45;;;;;;;2.37;0.97;;;15.70;82.70;;;;;;5094158;28;20175;-68
2022/02/21 09:02:11;;;;;;;2.63;0.90;;;16.10;81.20;;;;;;5094295;28;20175;-69
2022/02/21 09:04:36;;;;;;;5.40;1.17;;;16.60;79.20;;;;;;5093580;28;20449;-69
2022/02/21 09:07:02;;;;;;;0.90;0.80;;;16.40;79.10;;;;;;5094107;28;20625;-70
2022/02/21 09:09:28;;;;;;;1.77;0.67;;;15.70;78.40;;;;;;5091758;28;20195;-69
2022/02/21 09:11:54;;;;;;;1.53;0.93;;;14.60;79.80;;;;;;5093505;28;20457;-69
2022/02/21 09:14:20;;;;;;;1.63;1.10;;;13.60;82.30;;;;;;5092332;28;20229;-69
2022/02/21 09:16:46;;;;;;;6.43;1.23;;;13.00;84.10;;;;;;5093417;28;20457;-69
2022/02/21 09:19:12;;;;;;;1.20;1.10;;;12.40;86.00;;;;;;5093304;28;20422;-71
2022/02/21 09:21:37;;;;;;;1.37;0.90;;;11.90;87.20;;;;;;5093518;28;20422;-71
2022/02/21 09:24:03;;;;;;;1.43;1.33;;;11.50;88.50;;;;;;5092693;28;20270;-69
2022/02/21 09:26:30;;;;;;;1.10;0.90;;;11.40;89.60;;;;;;5093913;28;20264;-69
2022/02/21 09:28:58;;;;;;;1.60;1.20;;;11.20;90.10;;;;;;5093359;28;20409;-69
2022/02/21 09:31:25;;;;;;;1.37;0.80;;;11.00;90.30;;;;;;5090246;28;20518;-69
2022/02/21 09:33:50;;;;;;;3.43;0.77;;;11.00;89.60;;;;;;5092724;28;20444;-68
2022/02/21 09:36:16;;;;;;;1.47;1.00;;;11.00;90.10;;;;;;5093126;28;20486;-69
2022/02/21 09:38:42;;;;;;;1.80;1.20;;;10.90;89.60;;;;;;5093649;28;20178;-66
2022/02/21 09:41:07;;;;;;;1.87;1.20;;;10.70;90.30;;;;;;5093513;28;20164;-72
2022/02/21 09:43:33;;;;;;;1.57;1.07;;;10.50;90.80;;;;;;5092539;28;20685;-73
2022/02/21 09:46:02;;;;;;;1.33;1.07;;;10.20;91.60;;;;;;5091467;28;20502;-68
2022/02/21 09:48:30;;;;;;;1.00;1.00;;;10.40;92.20;;;;;;5092618;28;20505;-70
2022/02/21 09:50:59;;;;;;;1.90;1.00;;;11.10;91.50;;;;;;5090925;28;20499;-70
2022/02/21 09:53:31;;;;;;;2.63;1.43;;;11.70;90.90;;;;;;5091325;28;20544;-69
2022/02/21 09:55:57;;;;;;;2.00;1.20;;;12.10;88.90;;;;;;5092045;28;20442;-69
2022/02/21 09:58:23;;;;;;;1.27;0.80;;;12.60;88.20;;;;;;5093296;28;20434;-73
2022/02/21 10:00:50;;;;;;;3.90;0.90;;;13.10;87.20;;;;;;5093308;28;20420;-71
2022/02/21 10:03:44;;;;;;;3.03;0.80;;;13.60;85.00;;;;;;5092106;28;20856;-68
2022/02/21 10:06:20;;;;;;;4.07;1.40;;;14.20;83.80;;;;;;5088997;28;20434;-70
2022/02/21 10:09:01;;;;;;;3.80;1.10;;;14.60;81.70;;;;;;5092900;28;20414;-72
2022/02/21 10:11:37;;;;;;;3.30;1.33;;;14.70;79.00;;;;;;5091770;28;20852;-68
2022/02/21 10:14:08;;;;;;;1.30;0.90;;;14.40;79.00;;;;;;5092070;28;20424;-68
2022/02/21 10:16:41;;;;;;;2.93;0.90;;;13.70;79.90;;;;;;5091762;28;20759;-70
2022/02/21 10:19:23;;;;;;;2.60;0.87;;;13.00;82.20;;;;;;5092564;28;20416;-67
2022/02/21 10:22:01;;;;;;;1.37;1.30;;;12.90;84.50;;;;;;5092732;28;20420;-69
2022/02/21 10:24:47;;;;;;;2.03;0.73;;;12.90;82.90;;;;;;5092431;28;20537;-66
2022/02/21 10:27:22;;;;;;;0.50;0.40;;;12.80;81.90;;;;;;5092415;28;20438;-68
2022/02/21 10:29:48;;;;;;;3.13;0.73;;;12.90;81.30;;;;;;5093024;28;20445;-67
2022/02/21 10:32:16;;;;;;;2.00;1.57;;;12.70;82.00;;;;;;5092455;28;20983;-68
2022/02/21 10:34:45;;;;;;;0.60;0.60;;;12.60;81.50;;;;;;5092066;28;20192;-67
2022/02/21 10:37:13;;;;;;;1.50;0.70;;;12.80;82.20;;;;;;5092650;28;20418;-68
2022/02/21 10:39:39;;;;;;;2.73;0.87;;;13.00;81.20;;;;;;5093561;28;20418;-67
2022/02/21 10:42:07;;;;;;;0.77;0.77;;;13.00;80.30;;;;;;5095779;28;20897;-67
2022/02/21 10:44:40;;;;;;;2.03;0.93;;;13.00;79.30;;;;;;5095806;28;20443;-69
2022/02/21 10:47:12;;;;;;;1.17;0.60;;;13.20;79.90;;;;;;5096252;28;20819;-70
2022/02/21 10:49:47;;;;;;;0.83;0.60;;;13.40;77.90;;;;;;5096023;28;20770;-67
2022/02/21 10:52:20;;;;;;;1.23;0.60;;;13.50;77.10;;;;;;5095557;28;20462;-69
2022/02/21 10:54:47;;;;;;;1.27;0.73;;;13.10;77.10;;;;;;5095051;28;20468;-69
2022/02/21 10:57:15;;;;;;;1.20;0.47;;;12.80;77.30;;;;;;5095698;28;20774;-68
2022/02/21 10:59:41;;;;;;;2.70;1.00;;;12.40;80.00;;;;;;5095950;28;20754;-68
2022/02/21 11:02:10;;;;;;;1.10;1.00;;;12.40;80.10;;;;;;5095686;28;20414;-70
2022/02/21 11:04:37;;;;;;;0.73;0.73;;;12.50;81.50;;;;;;5095554;28;20450;-69
2022/02/21 11:07:03;;;;;;;2.17;1.20;;;12.30;79.70;;;;;;5094944;28;20422;-69
2022/02/21 11:09:30;;;;;;;0.60;0.53;;;12.60;78.30;;;;;;5094975;28;20454;-69
2022/02/21 11:12:00;;;;;;;1.37;0.87;;;13.00;78.30;;;;;;5095324;28;20464;-70
2022/02/21 11:14:29;;;;;;;2.60;0.80;;;13.20;75.40;;;;;;5095273;28;20451;-69
2022/02/21 11:16:56;;;;;;;0.83;0.73;;;13.40;77.30;;;;;;5095122;28;20412;-69
2022/02/21 11:19:22;;;;;;;2.03;1.83;;;13.70;75.20;;;;;;5095624;28;20421;-68
2022/02/21 11:21:50;;;;;;;2.90;1.10;;;13.90;75.50;;;;;;5095211;28;20427;-68
2022/02/21 11:24:22;;;;;;;4.53;1.40;;;13.50;74.20;;;;;;5094992;28;20189;-69
2022/02/21 11:26:56;;;;;;;0.90;0.90;;;13.00;75.00;;;;;;5095703;28;20479;-67
2022/02/21 11:29:56;;;;;;;0.83;0.50;;;12.40;75.70;;;;;;5095971;28;20422;-68
2022/02/21 11:32:23;;;;;;;0.77;0.53;;;11.70;76.90;;;;;;5095002;28;20862;-68
2022/02/21 11:35:18;;;;;;;0.97;0.50;;;11.00;80.00;;;;;;5095038;28;20440;-68
2022/02/21 11:37:45;;;;;;;2.50;1.43;;;10.40;83.50;;;;;;5093118;28;20431;-68
2022/02/21 11:40:12;;;;;;;0.60;0.60;;;10.00;85.30;;;;;;5094892;28;20427;-66
2022/02/21 11:42:38;;;;;;;2.25;1.17;;;9.80;88.10;;;;;;5095010;28;20258;-67
2022/02/21 11:45:21;;;;;;;1.05;0.50;;;9.60;90.60;;;;;;5094530;28;20199;-67
2022/02/21 11:47:48;;;;;;;4.53;1.13;;;9.30;94.00;;;;;;5095215;28;20174;-67
2022/02/21 11:50:25;;;;;;;0.30;0.30;;;8.80;96.50;;;;;;5094491;28;20168;-66
2022/02/21 11:52:53;;;;;;;0.40;0.30;;;8.40;98.20;;;;;;5092766;28;20673;-68
2022/02/21 11:55:35;;;;;;;0.60;0.50;;;8.20;99.00;;;;;;5094912;28;20287;-67
2022/02/21 11:58:19;;;;;;;1.02;0.60;;;8.30;99.10;;;;;;5094922;28;20199;-66
2022/02/21 12:00:54;;;;;;;0.80;0.80;;;8.20;98.80;;;;;;5087747;28;20168;-66
2022/02/21 12:03:21;;;;;;;1.98;0.82;;;8.40;98.20;;;;;;5094666;28;20661;-67
2022/02/21 12:05:53;;;;;;;1.95;0.93;;;8.50;97.90;;;;;;5095161;28;20261;-69
2022/02/21 12:08:27;;;;;;;1.58;0.65;;;8.60;97.70;;;;;;5095285;28;20648;-68
2022/02/21 12:11:07;;;;;;;0.95;0.60;;;8.80;97.50;;;;;;5094992;28;20183;-67
2022/02/21 12:13:34;;;;;;;0.60;0.60;;;9.00;96.70;;;;;;5094570;28;20191;-68
2022/02/21 12:16:05;;;;;;;1.90;1.25;;;9.00;95.60;;;;;;5093171;28;20214;-68
2022/02/21 12:18:43;;;;;;;2.45;1.35;;;9.10;95.90;;;;;;5094774;28;20195;-67
2022/02/21 12:21:18;;;;;;;1.05;0.63;;;9.20;95.10;;;;;;5094741;28;20191;-66
2022/02/21 12:23:53;;;;;;;2.00;1.10;;;9.30;94.30;;;;;;5094319;28;20251;-68
2022/02/21 12:26:28;;;;;;;0.70;0.70;;;9.40;93.70;;;;;;5094739;28;20517;-66
2022/02/21 12:29:18;;;;;;;7.63;0.95;;;9.50;93.30;;;;;;5093513;28;20530;-67
2022/02/21 12:31:57;;;;;;;2.58;0.80;;;9.60;92.90;;;;;;5094391;28;20272;-66
2022/02/21 12:34:27;;;;;;;3.15;1.15;;;9.60;92.80;;;;;;5094247;28;20188;-66
2022/02/21 12:36:57;;;;;;;0.82;0.68;;;9.60;91.50;;;;;;5094693;28;20164;-67
2022/02/21 12:39:26;;;;;;;2.28;0.60;;;9.60;91.50;;;;;;5093319;28;20205;-66
2022/02/21 12:41:52;;;;;;;0.95;0.95;;;9.50;90.30;;;;;;5094322;28;20164;-66
2022/02/21 12:44:19;;;;;;;0.70;0.70;;;9.50;89.50;;;;;;5094115;28;20184;-68
2022/02/21 12:46:50;;;;;;;4.43;0.52;;;9.40;90.30;;;;;;5094484;28;20164;-67
2022/02/21 12:49:25;;;;;;;0.73;0.70;;;9.30;90.20;;;;;;5094378;28;20179;-66
2022/02/21 12:51:52;;;;;;;0.43;0.30;;;9.30;88.30;;;;;;5094512;28;20333;-67